createdAt,value
2023-05-01T00:01:30.402Z,95951.50
2023-05-01T00:03:58.422Z,95934.03
2023-05-01T00:06:28.232Z,95953.28
2023-05-01T00:08:57.442Z,95921.22
2023-05-01T00:11:25.387Z,95951.91
2023-05-01T00:13:54.252Z,95927.59
2023-05-01T00:16:21.865Z,95950.13
2023-05-01T00:18:49.629Z,95930.03
2023-05-01T00:21:17.304Z,95931.19
2023-05-01T00:23:44.844Z,95922.28
2023-05-01T00:26:13.760Z,95904.13
2023-05-01T00:28:41.478Z,95922.13
2023-05-01T00:31:09.120Z,95916.09
2023-05-01T00:33:37.010Z,95897.94
2023-05-01T00:36:05.240Z,95934.06
2023-05-01T00:38:32.841Z,95900.88
2023-05-01T00:41:00.475Z,95920.22
2023-05-01T00:43:29.359Z,95923.09
2023-05-01T00:45:56.879Z,95912.13
2023-05-01T00:48:24.558Z,95902.88
2023-05-01T00:50:52.196Z,95914.44
2023-05-01T00:53:20.426Z,95914.44
2023-05-01T00:55:49.382Z,95906.66
2023-05-01T00:58:18.646Z,95882.84
2023-05-01T01:00:47.671Z,95911.38
2023-05-01T01:03:15.443Z,95896.72
2023-05-01T01:05:47.671Z,95893.31
2023-05-01T01:08:21.009Z,95870.91
2023-05-01T01:10:55.438Z,95887.13
2023-05-01T01:13:30.017Z,95879.59
2023-05-01T01:16:10.227Z,95859.97
2023-05-01T01:18:44.492Z,95852.13
2023-05-01T01:21:18.383Z,95857.13
2023-05-01T01:24:12.220Z,95865.34
2023-05-01T01:27:02.244Z,95842.25
2023-05-01T01:29:47.501Z,95867.59
2023-05-01T01:32:47.854Z,95862.69
2023-05-01T01:35:20.725Z,95874.63
2023-05-01T01:37:52.983Z,95860.97
2023-05-01T01:40:25.555Z,95864.41
2023-05-01T01:42:59.866Z,95858.34
2023-05-01T01:45:40.782Z,95861.47
2023-05-01T01:48:12.070Z,95842.88
2023-05-01T01:50:43.146Z,95845.56
2023-05-01T01:53:14.247Z,95847.91
2023-05-01T01:55:45.649Z,95846.00
2023-05-01T01:58:15.987Z,95824.00
2023-05-01T02:00:46.087Z,95833.84
2023-05-01T02:03:15.050Z,95822.38
2023-05-01T02:05:44.798Z,95828.59
2023-05-01T02:08:14.209Z,95833.97
2023-05-01T02:10:43.004Z,95830.50
2023-05-01T02:13:12.873Z,95821.88
2023-05-01T02:15:42.030Z,95823.50
2023-05-01T02:18:09.913Z,95840.81
2023-05-01T02:20:38.805Z,95813.31
2023-05-01T02:23:08.966Z,95830.53
2023-05-01T02:25:40.259Z,95804.19
2023-05-01T02:28:13.270Z,95827.09
2023-05-01T02:30:41.143Z,95830.75
2023-05-01T02:33:09.165Z,95828.16
2023-05-01T02:35:40.761Z,95812.31
2023-05-01T02:38:09.747Z,95813.34
2023-05-01T02:40:39.490Z,95813.91
2023-05-01T02:43:10.621Z,95788.03
2023-05-01T02:45:39.756Z,95802.41
2023-05-01T02:48:09.007Z,95802.84
2023-05-01T02:50:37.639Z,95798.16
2023-05-01T02:53:05.256Z,95801.03
2023-05-01T02:55:35.162Z,95795.09
2023-05-01T02:58:02.942Z,95800.78
2023-05-01T03:00:30.930Z,95768.34
2023-05-01T03:02:58.659Z,95764.66
2023-05-01T03:05:26.843Z,95771.00
2023-05-01T03:07:54.335Z,95770.69
2023-05-01T03:10:22.297Z,95773.88
2023-05-01T03:12:51.223Z,95776.16
2023-05-01T03:15:19.000Z,95768.41
2023-05-01T03:17:46.636Z,95726.22
2023-05-01T03:20:14.350Z,95764.72
2023-05-01T03:22:41.974Z,95773.63
2023-05-01T03:25:10.547Z,95758.31
2023-05-01T03:27:38.112Z,95763.94
2023-05-01T03:30:08.797Z,95756.31
2023-05-01T03:32:36.870Z,95753.97
2023-05-01T03:35:04.727Z,95749.06
2023-05-01T03:37:33.839Z,95744.34
2023-05-01T03:40:01.675Z,95740.97
2023-05-01T03:42:29.757Z,95717.38
2023-05-01T03:44:57.325Z,95742.72
2023-05-01T03:47:26.323Z,95718.56
2023-05-01T03:49:54.073Z,95744.22
2023-05-01T03:52:21.739Z,95743.38
2023-05-01T03:54:49.864Z,95740.53
2023-05-01T03:57:17.462Z,95740.00
2023-05-01T03:59:44.980Z,95733.34
2023-05-01T04:02:12.742Z,95734.91
2023-05-01T04:04:41.640Z,95736.91
2023-05-01T04:07:09.295Z,95720.50
2023-05-01T04:09:37.250Z,95736.75
2023-05-01T04:12:05.767Z,95744.78
2023-05-01T04:14:33.327Z,95740.13
2023-05-01T04:17:01.092Z,95741.31
2023-05-01T04:19:28.607Z,95707.84
2023-05-01T04:21:58.209Z,95695.56
2023-05-01T04:24:25.788Z,95742.75
2023-05-01T04:26:53.308Z,95743.47
2023-05-01T04:29:21.040Z,95730.13
2023-05-01T04:31:48.565Z,95726.97
2023-05-01T04:34:16.170Z,95734.22
2023-05-01T04:36:43.761Z,95736.72
2023-05-01T04:39:12.776Z,95728.66
2023-05-01T04:41:40.439Z,95736.78
2023-05-01T04:44:07.916Z,95740.63
2023-05-01T04:46:35.466Z,95710.38
2023-05-01T04:49:03.045Z,95705.69
2023-05-01T04:51:31.036Z,95716.75
2023-05-01T04:53:58.557Z,95746.00
2023-05-01T04:56:27.957Z,95735.47
2023-05-01T04:58:55.482Z,95741.13
2023-05-01T05:01:23.093Z,95725.69
2023-05-01T05:03:50.837Z,95720.84
2023-05-01T05:06:18.810Z,95732.41
2023-05-01T05:08:46.314Z,95733.47
2023-05-01T05:11:13.931Z,95712.44
2023-05-01T05:13:42.945Z,95725.25
2023-05-01T05:16:10.401Z,95711.38
2023-05-01T05:18:38.620Z,95736.34
2023-05-01T05:21:06.393Z,95715.97
2023-05-01T05:23:34.095Z,95733.03
2023-05-01T05:26:02.152Z,95731.34
2023-05-01T05:28:30.268Z,95708.03
2023-05-01T05:30:59.200Z,95724.66
2023-05-01T05:33:26.722Z,95732.22
2023-05-01T05:35:54.486Z,95733.88
2023-05-01T05:38:22.093Z,95729.13
2023-05-01T05:40:49.604Z,95732.81
2023-05-01T05:43:17.211Z,95735.41
2023-05-01T05:45:44.932Z,95744.84
2023-05-01T05:48:14.332Z,95728.75
2023-05-01T05:50:41.965Z,95734.75
2023-05-01T05:53:09.888Z,95713.28
2023-05-01T05:55:37.495Z,95734.16
2023-05-01T05:58:05.155Z,95721.41
2023-05-01T06:00:33.025Z,95729.81
2023-05-01T06:03:00.640Z,95721.50
2023-05-01T06:05:29.718Z,95727.59
2023-05-01T06:07:58.827Z,95712.78
2023-05-01T06:10:26.490Z,95727.19
2023-05-01T06:13:03.799Z,95719.75
2023-05-01T06:15:41.330Z,95710.41
2023-05-01T06:18:09.248Z,95726.38
2023-05-01T06:20:38.567Z,95709.19
2023-05-01T06:23:08.417Z,95729.81
2023-05-01T06:25:36.484Z,95707.13
2023-05-01T06:28:03.957Z,95731.72
2023-05-01T06:30:31.473Z,95716.63
2023-05-01T06:32:59.177Z,95700.16
2023-05-01T06:35:27.152Z,95710.91
2023-05-01T06:37:56.870Z,95717.72
2023-05-01T06:40:24.556Z,95710.44
2023-05-01T06:42:52.465Z,95718.34
2023-05-01T06:45:20.193Z,95710.53
2023-05-01T06:47:47.981Z,95710.56
2023-05-01T06:50:15.863Z,95708.50
2023-05-01T06:52:43.537Z,95705.91
2023-05-01T06:55:12.972Z,95713.75
2023-05-01T06:57:41.279Z,95712.94
2023-05-01T07:00:10.734Z,95705.63
2023-05-01T07:02:40.480Z,95704.88
2023-05-01T07:05:08.708Z,95702.25
2023-05-01T07:07:37.523Z,95683.97
2023-05-01T07:10:07.062Z,95717.66
2023-05-01T07:12:35.884Z,95704.59
2023-05-01T07:15:03.374Z,95709.50
2023-05-01T07:17:30.917Z,95716.03
2023-05-01T07:19:58.731Z,95712.34
2023-05-01T07:22:26.339Z,95708.63
2023-05-01T07:24:53.830Z,95706.00
2023-05-01T07:27:21.348Z,95713.78
2023-05-01T07:29:51.754Z,95705.31
2023-05-01T07:32:19.324Z,95706.03
2023-05-01T07:34:46.882Z,95713.84
2023-05-01T07:37:14.373Z,95703.03
2023-05-01T07:39:41.831Z,95702.66
2023-05-01T07:42:09.294Z,95709.63
2023-05-01T07:44:36.851Z,95707.38
2023-05-01T07:47:06.233Z,95707.56
2023-05-01T07:49:36.925Z,95702.69
2023-05-01T07:52:05.257Z,95692.88
2023-05-01T07:54:32.695Z,95695.25
2023-05-01T07:57:01.662Z,95699.75
2023-05-01T07:59:29.258Z,95698.44
2023-05-01T08:01:57.603Z,95699.31
2023-05-01T08:04:26.536Z,95695.50
2023-05-01T08:06:54.088Z,95697.53
2023-05-01T08:09:21.908Z,95711.88
2023-05-01T08:11:49.362Z,95707.34
2023-05-01T08:14:17.501Z,95705.50
2023-05-01T08:16:45.126Z,95701.78
2023-05-01T08:19:12.632Z,95704.03
2023-05-01T08:21:41.437Z,95708.09
2023-05-01T08:24:10.498Z,95702.88
2023-05-01T08:26:38.192Z,95700.38
2023-05-01T08:29:05.631Z,95690.91
2023-05-01T08:31:39.425Z,95696.72
2023-05-01T08:34:07.194Z,95699.75
2023-05-01T08:36:35.866Z,95684.75
2023-05-01T08:39:05.128Z,95698.22
2023-05-01T08:41:33.779Z,95698.16
2023-05-01T08:44:02.713Z,95702.50
2023-05-01T08:46:38.331Z,95693.69
2023-05-01T08:49:07.080Z,95703.94
2023-05-01T08:51:35.900Z,95699.06
2023-05-01T08:54:06.616Z,95699.50
2023-05-01T08:56:37.065Z,95697.56
2023-05-01T08:59:06.369Z,95678.97
2023-05-01T09:01:34.784Z,95699.16
2023-05-01T09:04:04.699Z,95701.78
2023-05-01T09:06:33.056Z,95701.78
2023-05-01T09:09:01.269Z,95680.31
2023-05-01T09:11:31.257Z,95700.50
2023-05-01T09:13:58.807Z,95685.94
2023-05-01T09:16:26.316Z,95694.41
2023-05-01T09:18:55.763Z,95694.69
2023-05-01T09:21:24.518Z,95695.22
2023-05-01T09:23:53.737Z,95697.09
2023-05-01T09:26:21.836Z,95669.81
2023-05-01T09:28:51.953Z,95695.09
2023-05-01T09:31:23.405Z,95688.25
2023-05-01T09:33:57.834Z,95702.66
2023-05-01T09:36:27.855Z,95689.38
2023-05-01T09:38:55.472Z,95692.38
2023-05-01T09:41:23.421Z,95693.72
2023-05-01T09:43:53.302Z,95685.78
2023-05-01T09:46:21.197Z,95691.06
2023-05-01T09:48:56.867Z,95687.72
2023-05-01T09:51:27.676Z,95671.34
2023-05-01T09:53:56.897Z,95666.53
2023-05-01T09:56:25.214Z,95673.31
2023-05-01T09:58:55.286Z,95671.22
2023-05-01T10:01:41.352Z,95666.19
2023-05-01T10:04:09.778Z,95661.56
2023-05-01T10:06:38.116Z,95671.97
2023-05-01T10:09:07.137Z,95666.84
2023-05-01T10:11:49.251Z,95673.75
2023-05-01T10:14:18.303Z,95668.72
2023-05-01T10:16:46.594Z,95661.88
2023-05-01T10:19:15.017Z,95670.91
2023-05-01T10:21:42.601Z,95671.50
2023-05-01T10:24:11.086Z,95657.13
2023-05-01T10:26:38.951Z,95667.63
2023-05-01T10:29:06.571Z,95667.66
2023-05-01T10:31:36.140Z,95668.69
2023-05-01T10:34:04.389Z,95670.75
2023-05-01T10:36:37.199Z,95674.94
2023-05-01T10:39:05.093Z,95662.56
2023-05-01T10:42:04.817Z,95691.72
2023-05-01T10:44:34.565Z,95660.50
2023-05-01T10:47:42.731Z,95682.50
2023-05-01T10:50:11.912Z,95682.19
2023-05-01T10:53:16.630Z,95677.28
2023-05-01T10:55:46.052Z,95677.97
2023-05-01T10:58:14.663Z,95673.06
2023-05-01T11:00:42.447Z,95686.22
2023-05-01T11:03:40.305Z,95687.22
2023-05-01T11:06:09.014Z,95645.06
2023-05-01T11:08:38.197Z,95685.22
2023-05-01T11:11:43.364Z,95664.94
2023-05-01T11:14:11.423Z,95678.53
2023-05-01T11:16:42.925Z,95680.75
2023-05-01T11:19:13.311Z,95677.69
2023-05-01T11:21:41.907Z,95665.53
2023-05-01T11:24:10.174Z,95684.44
2023-05-01T11:26:40.101Z,95669.47
2023-05-01T11:29:08.240Z,95678.22
2023-05-01T11:31:35.829Z,95681.63
2023-05-01T11:34:04.266Z,95681.53
2023-05-01T11:36:49.177Z,95670.00
2023-05-01T11:39:17.791Z,95682.34
2023-05-01T11:41:45.882Z,95675.00
2023-05-01T11:44:16.129Z,95669.94
2023-05-01T11:46:43.656Z,95659.81
2023-05-01T11:49:12.848Z,95674.09
2023-05-01T11:51:41.650Z,95670.44
2023-05-01T11:54:10.729Z,95671.81
2023-05-01T11:56:40.904Z,95672.59
2023-05-01T11:59:13.172Z,95663.66
2023-05-01T12:01:43.097Z,95653.13
2023-05-01T12:04:11.382Z,95672.56
2023-05-01T12:06:44.506Z,95675.53
2023-05-01T12:09:16.535Z,95658.69
2023-05-01T12:11:44.711Z,95678.56
2023-05-01T12:14:13.196Z,95686.25
2023-05-01T12:16:44.380Z,95677.97
2023-05-01T12:19:14.239Z,95693.25
2023-05-01T12:21:43.234Z,95688.69
2023-05-01T12:24:11.673Z,95692.44
2023-05-01T12:26:39.545Z,95697.34
2023-05-01T12:29:08.882Z,95691.13
2023-05-01T12:31:37.173Z,95696.34
2023-05-01T12:34:06.448Z,95688.81
2023-05-01T12:36:35.856Z,95698.72
2023-05-01T12:39:06.347Z,95692.78
2023-05-01T12:41:36.629Z,95708.41
2023-05-01T12:44:04.224Z,95699.59
2023-05-01T12:46:31.936Z,95698.16
2023-05-01T12:48:59.478Z,95686.78
2023-05-01T12:51:27.468Z,95670.22
2023-05-01T12:53:57.369Z,95691.81
2023-05-01T12:56:26.811Z,95693.38
2023-05-01T12:58:55.261Z,95704.75
2023-05-01T13:01:27.233Z,95694.16
2023-05-01T13:03:57.833Z,95698.53
2023-05-01T13:06:33.858Z,95698.13
2023-05-01T13:09:10.080Z,95698.31
2023-05-01T13:11:39.159Z,95693.34
2023-05-01T13:14:08.721Z,95691.19
2023-05-01T13:16:44.626Z,95719.75
2023-05-01T13:19:12.327Z,95720.91
2023-05-01T13:21:47.394Z,95725.31
2023-05-01T13:24:15.030Z,95714.69
2023-05-01T13:26:45.610Z,95721.97
2023-05-01T13:29:15.820Z,95721.00
2023-05-01T13:31:45.197Z,95718.09
2023-05-01T13:34:18.439Z,95714.00
2023-05-01T13:36:46.208Z,95733.41
2023-05-01T13:39:21.246Z,95723.81
2023-05-01T13:41:50.552Z,95727.91
2023-05-01T13:44:19.056Z,95729.75
2023-05-01T13:46:47.520Z,95703.50
2023-05-01T13:49:15.739Z,95730.13
2023-05-01T13:51:46.615Z,95711.84
2023-05-01T13:54:15.184Z,95718.16
2023-05-01T13:56:42.939Z,95737.66
2023-05-01T13:59:12.081Z,95722.84
2023-05-01T14:01:45.830Z,95729.50
2023-05-01T14:04:17.750Z,95731.81
2023-05-01T14:06:47.422Z,95735.81
2023-05-01T14:09:18.488Z,95720.38
2023-05-01T14:11:47.508Z,95715.88
2023-05-01T14:14:18.918Z,95704.91
2023-05-01T14:16:52.068Z,95710.31
2023-05-01T14:19:19.683Z,95712.63
2023-05-01T14:21:47.593Z,95719.69
2023-05-01T14:24:17.661Z,95713.72
2023-05-01T14:26:46.487Z,95714.00
2023-05-01T14:29:22.344Z,95689.75
2023-05-01T14:31:49.964Z,95716.81
2023-05-01T14:34:18.772Z,95724.41
2023-05-01T14:36:46.706Z,95708.34
2023-05-01T14:39:16.725Z,95710.22
2023-05-01T14:41:44.261Z,95720.78
2023-05-01T14:44:13.940Z,95715.47
2023-05-01T14:46:49.529Z,95721.53
2023-05-01T14:49:20.054Z,95720.84
2023-05-01T14:51:47.992Z,95711.63
2023-05-01T14:54:16.081Z,95707.97
2023-05-01T14:56:44.275Z,95718.69
2023-05-01T14:59:12.393Z,95711.72
2023-05-01T15:01:40.421Z,95725.97
2023-05-01T15:04:10.959Z,95738.63
2023-05-01T15:06:38.739Z,95745.31
2023-05-01T15:09:06.233Z,95756.94
2023-05-01T15:11:33.917Z,95750.72
2023-05-01T15:14:02.502Z,95748.38
2023-05-01T15:16:31.521Z,95772.25
2023-05-01T15:18:59.006Z,95750.84
2023-05-01T15:21:27.859Z,95757.38
2023-05-01T15:23:55.301Z,95759.75
2023-05-01T15:26:22.763Z,95777.50
2023-05-01T15:28:50.207Z,95774.34
2023-05-01T15:31:18.243Z,95785.56
2023-05-01T15:33:46.188Z,95795.75
2023-05-01T15:36:13.629Z,95806.16
2023-05-01T15:38:43.494Z,95808.47
2023-05-01T15:41:10.947Z,95805.41
2023-05-01T15:43:38.791Z,95805.16
2023-05-01T15:46:06.418Z,95799.38
2023-05-01T15:48:34.256Z,95812.66
2023-05-01T15:51:01.720Z,95822.06
2023-05-01T15:53:29.140Z,95830.38
2023-05-01T15:55:58.766Z,95832.38
2023-05-01T15:58:26.239Z,95811.84
2023-05-01T16:00:53.738Z,95834.88
2023-05-01T16:03:21.512Z,95836.72
2023-05-01T16:05:49.055Z,95833.84
2023-05-01T16:08:18.681Z,95826.69
2023-05-01T16:10:46.231Z,95834.81
2023-05-01T16:13:15.188Z,95832.19
2023-05-01T16:15:42.721Z,95838.19
2023-05-01T16:18:18.288Z,95834.78
2023-05-01T16:20:45.844Z,95845.00
2023-05-01T16:23:15.948Z,95845.81
2023-05-01T16:25:44.277Z,95846.31
2023-05-01T16:28:12.800Z,95848.66
2023-05-01T16:30:43.397Z,95850.00
2023-05-01T16:33:18.220Z,95851.03
2023-05-01T16:35:48.238Z,95864.06
2023-05-01T16:38:15.847Z,95858.09
2023-05-01T16:40:44.071Z,95850.94
2023-05-01T16:43:11.563Z,95852.13
2023-05-01T16:45:39.750Z,95859.22
2023-05-01T16:48:08.620Z,95859.94
2023-05-01T16:50:40.291Z,95874.81
2023-05-01T16:53:07.957Z,95862.53
2023-05-01T16:55:35.483Z,95857.50
2023-05-01T16:58:03.029Z,95869.44
2023-05-01T17:00:31.718Z,95872.59
2023-05-01T17:02:59.960Z,95865.59
2023-05-01T17:05:29.134Z,95863.47
2023-05-01T17:07:56.632Z,95867.75
2023-05-01T17:10:24.286Z,95869.75
2023-05-01T17:12:51.755Z,95872.84
2023-05-01T17:15:19.450Z,95869.13
2023-05-01T17:17:47.019Z,95874.66
2023-05-01T17:20:14.752Z,95872.53
2023-05-01T17:22:44.417Z,95876.44
2023-05-01T17:25:12.110Z,95870.09
2023-05-01T17:27:39.561Z,95872.25
2023-05-01T17:30:08.382Z,95871.94
2023-05-01T17:32:37.449Z,95868.41
2023-05-01T17:35:06.164Z,95878.59
2023-05-01T17:37:33.981Z,95874.44
2023-05-01T17:40:04.862Z,95880.72
2023-05-01T17:42:32.509Z,95881.25
2023-05-01T17:45:00.192Z,95854.22
2023-05-01T17:47:28.094Z,95876.53
2023-05-01T17:49:55.951Z,95873.63
2023-05-01T17:52:23.712Z,95856.88
2023-05-01T17:54:51.489Z,95868.19
2023-05-01T17:57:20.731Z,95879.91
2023-05-01T17:59:48.275Z,95873.03
2023-05-01T18:02:15.834Z,95879.59
2023-05-01T18:04:43.545Z,95859.41
2023-05-01T18:07:11.153Z,95875.69
2023-05-01T18:09:38.910Z,95882.47
2023-05-01T18:12:06.828Z,95863.69
2023-05-01T18:14:36.987Z,95876.78
2023-05-01T18:17:04.742Z,95877.91
2023-05-01T18:19:32.535Z,95859.97
2023-05-01T18:22:04.167Z,95866.75
2023-05-01T18:24:32.231Z,95857.13
2023-05-01T18:27:00.731Z,95888.03
2023-05-01T18:29:28.976Z,95848.72
2023-05-01T18:31:58.011Z,95847.09
2023-05-01T18:34:25.783Z,95887.44
2023-05-01T18:36:54.612Z,95891.84
2023-05-01T18:39:22.732Z,95886.66
2023-05-01T18:41:50.474Z,95897.38
2023-05-01T18:44:18.666Z,95892.41
2023-05-01T18:46:46.529Z,95897.38
2023-05-01T18:49:15.596Z,95889.75
2023-05-01T18:51:43.220Z,95901.03
2023-05-01T18:54:10.811Z,95873.88
2023-05-01T18:56:38.450Z,95905.25
2023-05-01T18:59:06.119Z,95871.19
2023-05-01T19:01:33.923Z,95887.13
2023-05-01T19:04:01.632Z,95899.69
2023-05-01T19:06:31.217Z,95903.56
2023-05-01T19:08:58.953Z,95886.59
2023-05-01T19:11:30.179Z,95906.50
2023-05-01T19:13:57.837Z,95891.91
2023-05-01T19:16:25.680Z,95880.34
2023-05-01T19:18:53.412Z,95897.66
2023-05-01T19:21:21.122Z,95870.91
2023-05-01T19:23:50.166Z,95900.53
2023-05-01T19:26:17.854Z,95914.97
2023-05-01T19:28:46.108Z,95915.78
2023-05-01T19:31:14.802Z,95903.47
2023-05-01T19:33:42.758Z,95878.56
2023-05-01T19:36:10.438Z,95904.38
2023-05-01T19:38:38.022Z,95919.19
2023-05-01T19:41:06.932Z,95905.59
2023-05-01T19:43:34.637Z,95926.97
2023-05-01T19:46:02.382Z,95923.59
2023-05-01T19:48:30.050Z,95927.47
2023-05-01T19:50:57.638Z,95903.47
2023-05-01T19:53:25.420Z,95943.88
2023-05-01T19:55:53.529Z,95935.22
2023-05-01T19:58:22.546Z,95930.16
2023-05-01T20:00:50.298Z,95915.50
2023-05-01T20:03:18.147Z,95943.06
2023-05-01T20:05:45.838Z,95934.03
2023-05-01T20:08:13.776Z,95946.28
2023-05-01T20:10:41.687Z,95951.97
2023-05-01T20:13:10.802Z,95927.00
2023-05-01T20:15:40.219Z,95938.75
2023-05-01T20:18:08.052Z,95925.28
2023-05-01T20:20:35.950Z,95920.00
2023-05-01T20:23:10.873Z,95962.53
2023-05-01T20:25:38.743Z,95969.59
2023-05-01T20:28:06.967Z,95930.13
2023-05-01T20:30:35.626Z,95950.44
2023-05-01T20:33:04.822Z,95974.47
2023-05-01T20:35:33.675Z,95946.81
2023-05-01T20:38:01.777Z,95931.50
2023-05-01T20:40:30.080Z,95978.72
2023-05-01T20:42:59.467Z,95940.09
2023-05-01T20:45:27.468Z,95979.19
2023-05-01T20:47:55.344Z,95958.88
2023-05-01T20:50:24.511Z,95982.88
2023-05-01T20:52:52.515Z,95975.97
2023-05-01T20:55:20.426Z,95991.78
2023-05-01T20:57:48.153Z,96000.41
2023-05-01T21:00:16.776Z,95997.25
2023-05-01T21:02:44.581Z,95996.22
2023-05-01T21:05:12.648Z,95956.75
2023-05-01T21:07:42.199Z,95990.50
2023-05-01T21:10:13.532Z,96007.75
2023-05-01T21:12:41.490Z,96008.78
2023-05-01T21:15:11.092Z,96006.09
2023-05-01T21:17:40.845Z,95999.16
2023-05-01T21:20:13.544Z,95983.09
2023-05-01T21:22:45.348Z,96016.78
2023-05-01T21:25:15.258Z,95996.81
2023-05-01T21:27:43.264Z,96021.50
2023-05-01T21:30:16.074Z,96021.44
2023-05-01T21:32:44.955Z,96010.44
2023-05-01T21:35:16.705Z,96029.06
2023-05-01T21:37:47.052Z,96027.63
2023-05-01T21:40:15.320Z,96025.50
2023-05-01T21:42:43.299Z,96021.50
2023-05-01T21:45:13.154Z,96009.09
2023-05-01T21:47:42.279Z,96039.38
2023-05-01T21:50:13.007Z,96040.19
2023-05-01T21:52:41.073Z,96018.75
2023-05-01T21:55:18.572Z,96059.00
2023-05-01T21:57:49.947Z,96034.72
2023-05-01T22:00:19.211Z,96035.75
2023-05-01T22:02:49.125Z,96038.81
2023-05-01T22:05:19.056Z,96035.50
2023-05-01T22:07:48.248Z,96060.00
2023-05-01T22:10:18.432Z,96038.44
2023-05-01T22:12:48.602Z,96058.91
2023-05-01T22:15:16.357Z,96065.22
2023-05-01T22:17:44.595Z,96068.84
2023-05-01T22:20:13.023Z,96044.75
2023-05-01T22:22:42.767Z,96042.75
2023-05-01T22:25:11.864Z,96067.13
2023-05-01T22:27:40.699Z,96067.69
2023-05-01T22:30:08.953Z,96069.00
2023-05-01T22:32:36.731Z,96064.75
2023-05-01T22:35:04.688Z,96048.19
2023-05-01T22:37:32.304Z,96057.19
2023-05-01T22:40:00.360Z,96058.13
2023-05-01T22:42:28.657Z,96062.69
2023-05-01T22:44:57.827Z,96083.03
2023-05-01T22:47:25.411Z,96089.13
2023-05-01T22:49:52.919Z,96073.75
2023-05-01T22:52:20.381Z,96091.16
2023-05-01T22:54:48.127Z,96084.47
2023-05-01T22:57:15.787Z,96089.44
2023-05-01T22:59:43.847Z,96094.06
2023-05-01T23:02:16.120Z,96098.50
2023-05-01T23:04:43.750Z,96096.47
2023-05-01T23:07:11.838Z,96097.56
2023-05-01T23:09:39.360Z,96101.41
2023-05-01T23:12:07.593Z,96100.47
2023-05-01T23:14:37.611Z,96099.44
2023-05-01T23:17:05.073Z,96103.41
2023-05-01T23:19:33.886Z,96106.31
2023-05-01T23:22:08.291Z,96101.91
2023-05-01T23:24:47.422Z,96097.66
2023-05-01T23:27:15.798Z,96087.84
2023-05-01T23:29:50.890Z,96100.63
2023-05-01T23:32:24.971Z,96074.69
2023-05-01T23:34:55.150Z,96080.03
2023-05-01T23:37:23.241Z,96112.06
2023-05-01T23:39:53.337Z,96085.88
2023-05-01T23:42:22.034Z,96101.34
2023-05-01T23:44:49.829Z,96108.13
2023-05-01T23:47:17.461Z,96109.63
2023-05-01T23:49:45.015Z,96111.75
2023-05-01T23:52:13.936Z,96085.81
2023-05-01T23:54:41.543Z,96100.38
2023-05-01T23:57:09.063Z,96107.34
2023-05-01T23:59:36.650Z,96109.25
